F/V Pasiphae 2 — FMFN — position and weather

sailwx.info

Track history (hours):
 
Tides and Currents Weather Stations Pressure Air Temp Water Temp Dewpoint Dewpoint Depression Visibility Wind Speed Wind Dir Waves Ship Positions

F/V Pasiphae 2

Last reported at 2016-May-28 08:28 UTC. Time now 2016-May-29 07:46 UTC.
Position N 47°44' W 003°22'.

Length 14 m.

Type: Fishing. MMSI: 228224800.

Date/timePositionNaut miles runAvg speedWind from/ knotsBaromVisibWave heightAir tempDewpointWater temp
2016-May-28 08:28N 47°44' W 003°22'29 1.1
2016-May-27 05:18N 47°16' W 003°28'2 2.7
2016-May-27 04:32N 47°16' W 003°25'7 6.7
2016-May-27 03:31N 47°23' W 003°24'8 8.7
2016-May-27 02:34N 47°31' W 003°23'9 8.8
2016-May-27 01:34N 47°40' W 003°22'4 3.8
2016-May-27 00:33N 47°44' W 003°22'8 8.1
2016-May-26 23:34N 47°36' W 003°23'8 8.1
2016-May-26 22:34N 47°28' W 003°25'7 7.0
2016-May-26 21:33N 47°21' W 003°26'8 1.7
2016-May-26 16:33N 47°15' W 003°36'3 3.4
2016-May-26 15:33N 47°12' W 003°35'6 5.8
2016-May-26 14:33N 47°07' W 003°39'8 7.6
2016-May-26 13:33N 47°02' W 003°47'28 2.5
2016-May-26 02:21N 47°27' W 003°28'7 9.0
2016-May-26 01:33N 47°33' W 003°24'9 8.9
2016-May-26 00:33N 47°42' W 003°22'1 1.5
2016-May-25 23:33N 47°44' W 003°22'8 7.7
2016-May-25 22:33N 47°36' W 003°23'9 8.6
2016-May-25 21:33N 47°28' W 003°28'9 8.7
2016-May-25 20:33N 47°20' W 003°33'9 8.8
2016-May-25 19:33N 47°12' W 003°38'8 0.5
2016-May-25 04:05N 47°19' W 003°31'5 8.3
2016-May-25 03:32N 47°23' W 003°29'8 8.4
2016-May-25 02:33N 47°31' W 003°25'8 8.3
2016-May-25 01:33N 47°39' W 003°22'4 4.5
2016-May-25 00:33N 47°44' W 003°22'1 1.2
2016-May-24 23:33N 47°43' W 003°22'9 8.8
2016-May-24 22:33N 47°34' W 003°24'9 8.7
2016-May-24 21:33N 47°26' W 003°27'14 4.5
2016-May-24 18:30N 47°12' W 003°34'11 0.3
2016-May-23 03:24N 47°20' W 003°23'7 8.6
2016-May-23 02:34N 47°27' W 003°22'9 8.5
2016-May-23 01:33N 47°36' W 003°22'8 7.8
2016-May-23 00:33N 47°44' W 003°22'4 0.1
2016-May-20 23:34N 47°40' W 003°22'9 8.9
2016-May-20 22:33N 47°31' W 003°26'9 8.9
2016-May-20 21:33N 47°24' W 003°32'7 6.1
2016-May-20 20:23N 47°18' W 003°38'3 3.5
2016-May-20 19:33N 47°17' W 003°42'4 3.9
2016-May-20 18:33N 47°16' W 003°48'10 0.7
2016-May-20 04:12N 47°19' W 003°34'6 8.9
2016-May-20 03:33N 47°24' W 003°30'9 8.7
2016-May-20 02:33N 47°32' W 003°25'9 8.7
2016-May-20 01:33N 47°40' W 003°22'3 3.4
2016-May-20 00:33N 47°44' W 003°22'5 4.5
2016-May-19 23:33N 47°39' W 003°22'9 8.6
2016-May-19 22:33N 47°31' W 003°24'9 8.7
2016-May-19 21:33N 47°22' W 003°28'3 0.2
2016-May-19 03:33N 47°22' W 003°32'9 8.7
2016-May-19 02:34N 47°30' W 003°27'9 8.9
2016-May-19 01:34N 47°38' W 003°22'6 5.5
2016-May-19 00:34N 47°44' W 003°22'6 6.4
2016-May-18 23:34N 47°37' W 003°23'8 8.4
2016-May-18 22:34N 47°30' W 003°28'8 7.7
2016-May-18 21:33N 47°23' W 003°32'6 4.5
2016-May-18 20:08N 47°18' W 003°38'  
Track history (hours):
 
Tides and Currents Weather Stations Pressure Air Temp Water Temp Dewpoint Dewpoint Depression Visibility Wind Speed Wind Dir Waves Ship Positions

F/V Pasiphae 2

Last reported at 2016-May-28 08:28 UTC. Time now 2016-May-29 07:46 UTC.
Position N 47°44' W 003°22'.

Length 14 m.

Type: Fishing. MMSI: 228224800.

Date/timePositionNaut miles runAvg speedWind from/ knotsBaromVisibWave heightAir tempDewpointWater temp
2016-May-28 08:28N 47°44' W 003°22'29 1.1
2016-May-27 05:18N 47°16' W 003°28'2 2.7
2016-May-27 04:32N 47°16' W 003°25'7 6.7
2016-May-27 03:31N 47°23' W 003°24'8 8.7
2016-May-27 02:34N 47°31' W 003°23'9 8.8
2016-May-27 01:34N 47°40' W 003°22'4 3.8
2016-May-27 00:33N 47°44' W 003°22'8 8.1
2016-May-26 23:34N 47°36' W 003°23'8 8.1
2016-May-26 22:34N 47°28' W 003°25'7 7.0
2016-May-26 21:33N 47°21' W 003°26'8 1.7
2016-May-26 16:33N 47°15' W 003°36'3 3.4
2016-May-26 15:33N 47°12' W 003°35'6 5.8
2016-May-26 14:33N 47°07' W 003°39'8 7.6
2016-May-26 13:33N 47°02' W 003°47'28 2.5
2016-May-26 02:21N 47°27' W 003°28'7 9.0
2016-May-26 01:33N 47°33' W 003°24'9 8.9
2016-May-26 00:33N 47°42' W 003°22'1 1.5
2016-May-25 23:33N 47°44' W 003°22'8 7.7
2016-May-25 22:33N 47°36' W 003°23'9 8.6
2016-May-25 21:33N 47°28' W 003°28'9 8.7
2016-May-25 20:33N 47°20' W 003°33'9 8.8
2016-May-25 19:33N 47°12' W 003°38'8 0.5
2016-May-25 04:05N 47°19' W 003°31'5 8.3
2016-May-25 03:32N 47°23' W 003°29'8 8.4
2016-May-25 02:33N 47°31' W 003°25'8 8.3
2016-May-25 01:33N 47°39' W 003°22'4 4.5
2016-May-25 00:33N 47°44' W 003°22'1 1.2
2016-May-24 23:33N 47°43' W 003°22'9 8.8
2016-May-24 22:33N 47°34' W 003°24'9 8.7
2016-May-24 21:33N 47°26' W 003°27'14 4.5
2016-May-24 18:30N 47°12' W 003°34'11 0.3
2016-May-23 03:24N 47°20' W 003°23'7 8.6
2016-May-23 02:34N 47°27' W 003°22'9 8.5
2016-May-23 01:33N 47°36' W 003°22'8 7.8
2016-May-23 00:33N 47°44' W 003°22'4 0.1
2016-May-20 23:34N 47°40' W 003°22'9 8.9
2016-May-20 22:33N 47°31' W 003°26'9 8.9
2016-May-20 21:33N 47°24' W 003°32'7 6.1
2016-May-20 20:23N 47°18' W 003°38'3 3.5
2016-May-20 19:33N 47°17' W 003°42'4 3.9
2016-May-20 18:33N 47°16' W 003°48'10 0.7
2016-May-20 04:12N 47°19' W 003°34'6 8.9
2016-May-20 03:33N 47°24' W 003°30'9 8.7
2016-May-20 02:33N 47°32' W 003°25'9 8.7
2016-May-20 01:33N 47°40' W 003°22'3 3.4
2016-May-20 00:33N 47°44' W 003°22'5 4.5
2016-May-19 23:33N 47°39' W 003°22'9 8.6
2016-May-19 22:33N 47°31' W 003°24'9 8.7
2016-May-19 21:33N 47°22' W 003°28'3 0.2
2016-May-19 03:33N 47°22' W 003°32'9 8.7
2016-May-19 02:34N 47°30' W 003°27'9 8.9
2016-May-19 01:34N 47°38' W 003°22'6 5.5
2016-May-19 00:34N 47°44' W 003°22'6 6.4
2016-May-18 23:34N 47°37' W 003°23'8 8.4
2016-May-18 22:34N 47°30' W 003°28'8 7.7
2016-May-18 21:33N 47°23' W 003°32'6 4.5
2016-May-18 20:08N 47°18' W 003°38'  

Dump ship's entire track history